sensor_id;sensor_type;location;lat;lon;timestamp;P1;durP1;ratioP1;P2;durP2;ratioP2
32292;SDS011;43233;48.608;8.838;2023-02-28T00:00:33;4.97;;;4.50;;
32292;SDS011;43233;48.608;8.838;2023-02-28T00:02:59;6.00;;;5.00;;
32292;SDS011;43233;48.608;8.838;2023-02-28T00:05:26;4.70;;;4.13;;
32292;SDS011;43233;48.608;8.838;2023-02-28T00:07:52;5.87;;;5.10;;
32292;SDS011;43233;48.608;8.838;2023-02-28T00:10:20;5.17;;;4.67;;
32292;SDS011;43233;48.608;8.838;2023-02-28T00:12:48;8.27;;;4.30;;
32292;SDS011;43233;48.608;8.838;2023-02-28T00:15:15;11.03;;;4.57;;
32292;SDS011;43233;48.608;8.838;2023-02-28T00:17:41;5.37;;;4.77;;
32292;SDS011;43233;48.608;8.838;2023-02-28T00:20:07;5.40;;;4.60;;
32292;SDS011;43233;48.608;8.838;2023-02-28T00:22:35;5.20;;;4.00;;
32292;SDS011;43233;48.608;8.838;2023-02-28T00:25:03;4.30;;;4.00;;
32292;SDS011;43233;48.608;8.838;2023-02-28T00:27:29;4.77;;;4.27;;
32292;SDS011;43233;48.608;8.838;2023-02-28T00:29:55;4.03;;;3.73;;
32292;SDS011;43233;48.608;8.838;2023-02-28T00:32:21;4.13;;;3.93;;
32292;SDS011;43233;48.608;8.838;2023-02-28T00:34:46;5.13;;;4.70;;
32292;SDS011;43233;48.608;8.838;2023-02-28T00:37:12;4.70;;;3.93;;
32292;SDS011;43233;48.608;8.838;2023-02-28T00:39:38;4.23;;;3.93;;
32292;SDS011;43233;48.608;8.838;2023-02-28T00:42:04;5.00;;;4.60;;
32292;SDS011;43233;48.608;8.838;2023-02-28T00:44:30;4.40;;;4.10;;
32292;SDS011;43233;48.608;8.838;2023-02-28T00:46:56;4.13;;;3.83;;
32292;SDS011;43233;48.608;8.838;2023-02-28T00:49:23;3.97;;;3.77;;
32292;SDS011;43233;48.608;8.838;2023-02-28T00:51:50;4.63;;;4.33;;
32292;SDS011;43233;48.608;8.838;2023-02-28T00:54:16;9.70;;;5.00;;
32292;SDS011;43233;48.608;8.838;2023-02-28T00:56:42;4.23;;;4.00;;
32292;SDS011;43233;48.608;8.838;2023-02-28T00:59:07;4.70;;;4.40;;
32292;SDS011;43233;48.608;8.838;2023-02-28T01:01:34;4.83;;;4.43;;
32292;SDS011;43233;48.608;8.838;2023-02-28T01:04:00;4.63;;;3.83;;
32292;SDS011;43233;48.608;8.838;2023-02-28T01:06:25;4.60;;;4.30;;
32292;SDS011;43233;48.608;8.838;2023-02-28T01:08:51;4.27;;;4.00;;
32292;SDS011;43233;48.608;8.838;2023-02-28T01:11:17;4.27;;;4.07;;
32292;SDS011;43233;48.608;8.838;2023-02-28T01:13:44;7.87;;;5.20;;
32292;SDS011;43233;48.608;8.838;2023-02-28T01:16:10;5.43;;;4.93;;
32292;SDS011;43233;48.608;8.838;2023-02-28T01:18:36;4.77;;;4.33;;
32292;SDS011;43233;48.608;8.838;2023-02-28T01:21:09;5.10;;;4.13;;
32292;SDS011;43233;48.608;8.838;2023-02-28T01:23:37;6.20;;;4.77;;
32292;SDS011;43233;48.608;8.838;2023-02-28T01:26:05;3.87;;;3.67;;
32292;SDS011;43233;48.608;8.838;2023-02-28T01:28:31;4.43;;;4.10;;
32292;SDS011;43233;48.608;8.838;2023-02-28T01:30:57;5.73;;;4.83;;
32292;SDS011;43233;48.608;8.838;2023-02-28T01:33:22;4.40;;;4.07;;
32292;SDS011;43233;48.608;8.838;2023-02-28T01:35:48;4.83;;;4.33;;
32292;SDS011;43233;48.608;8.838;2023-02-28T01:38:14;4.80;;;4.20;;
32292;SDS011;43233;48.608;8.838;2023-02-28T01:40:40;18.83;;;12.03;;
32292;SDS011;43233;48.608;8.838;2023-02-28T01:43:19;5.03;;;4.53;;
32292;SDS011;43233;48.608;8.838;2023-02-28T01:45:56;6.03;;;5.00;;
32292;SDS011;43233;48.608;8.838;2023-02-28T01:48:26;8.40;;;4.50;;
32292;SDS011;43233;48.608;8.838;2023-02-28T01:50:56;5.63;;;4.60;;
32292;SDS011;43233;48.608;8.838;2023-02-28T01:53:27;4.60;;;4.30;;
32292;SDS011;43233;48.608;8.838;2023-02-28T01:55:58;6.23;;;4.80;;
32292;SDS011;43233;48.608;8.838;2023-02-28T01:58:24;5.43;;;4.57;;
32292;SDS011;43233;48.608;8.838;2023-02-28T02:00:49;4.73;;;4.37;;
32292;SDS011;43233;48.608;8.838;2023-02-28T02:03:16;5.20;;;4.70;;
32292;SDS011;43233;48.608;8.838;2023-02-28T02:05:44;5.93;;;5.40;;
32292;SDS011;43233;48.608;8.838;2023-02-28T02:08:13;4.80;;;4.50;;
32292;SDS011;43233;48.608;8.838;2023-02-28T02:10:58;4.93;;;4.43;;
32292;SDS011;43233;48.608;8.838;2023-02-28T02:16:24;5.50;;;4.70;;
32292;SDS011;43233;48.608;8.838;2023-02-28T02:27:32;10.90;;;5.23;;
32292;SDS011;43233;48.608;8.838;2023-02-28T02:32:58;5.83;;;4.37;;
32292;SDS011;43233;48.608;8.838;2023-02-28T02:38:22;4.63;;;4.33;;
32292;SDS011;43233;48.608;8.838;2023-02-28T02:43:51;4.70;;;4.37;;
32292;SDS011;43233;48.608;8.838;2023-02-28T02:46:32;7.73;;;4.70;;
32292;SDS011;43233;48.608;8.838;2023-02-28T02:49:04;6.43;;;4.53;;
32292;SDS011;43233;48.608;8.838;2023-02-28T02:51:33;5.30;;;4.80;;
32292;SDS011;43233;48.608;8.838;2023-02-28T02:54:05;5.60;;;5.10;;
32292;SDS011;43233;48.608;8.838;2023-02-28T02:56:36;6.17;;;5.20;;
32292;SDS011;43233;48.608;8.838;2023-02-28T02:59:07;5.53;;;5.03;;
32292;SDS011;43233;48.608;8.838;2023-02-28T03:01:35;5.57;;;5.07;;
32292;SDS011;43233;48.608;8.838;2023-02-28T03:04:15;4.87;;;4.47;;
32292;SDS011;43233;48.608;8.838;2023-02-28T03:06:45;4.47;;;4.03;;
32292;SDS011;43233;48.608;8.838;2023-02-28T03:09:10;5.40;;;4.90;;
32292;SDS011;43233;48.608;8.838;2023-02-28T03:11:37;5.43;;;4.93;;
32292;SDS011;43233;48.608;8.838;2023-02-28T03:14:46;6.13;;;5.20;;
32292;SDS011;43233;48.608;8.838;2023-02-28T03:19:45;5.70;;;5.20;;
32292;SDS011;43233;48.608;8.838;2023-02-28T03:27:34;6.07;;;5.10;;
32292;SDS011;43233;48.608;8.838;2023-02-28T03:30:12;5.60;;;5.10;;
32292;SDS011;43233;48.608;8.838;2023-02-28T03:33:21;5.77;;;5.20;;
32292;SDS011;43233;48.608;8.838;2023-02-28T03:35:54;5.73;;;5.13;;
32292;SDS011;43233;48.608;8.838;2023-02-28T03:38:27;6.03;;;5.47;;
32292;SDS011;43233;48.608;8.838;2023-02-28T03:41:01;6.83;;;5.40;;
32292;SDS011;43233;48.608;8.838;2023-02-28T03:43:40;7.10;;;5.10;;
32292;SDS011;43233;48.608;8.838;2023-02-28T03:46:11;7.90;;;5.80;;
32292;SDS011;43233;48.608;8.838;2023-02-28T03:48:44;6.87;;;6.27;;
32292;SDS011;43233;48.608;8.838;2023-02-28T03:51:16;8.03;;;6.37;;
32292;SDS011;43233;48.608;8.838;2023-02-28T03:53:50;9.33;;;6.77;;
32292;SDS011;43233;48.608;8.838;2023-02-28T03:56:30;6.40;;;5.73;;
32292;SDS011;43233;48.608;8.838;2023-02-28T03:59:04;6.70;;;5.63;;
32292;SDS011;43233;48.608;8.838;2023-02-28T04:04:07;14.37;;;5.20;;
32292;SDS011;43233;48.608;8.838;2023-02-28T04:06:34;8.70;;;5.73;;
32292;SDS011;43233;48.608;8.838;2023-02-28T04:09:00;7.27;;;6.60;;
32292;SDS011;43233;48.608;8.838;2023-02-28T04:11:32;8.57;;;6.00;;
32292;SDS011;43233;48.608;8.838;2023-02-28T04:14:04;8.83;;;7.23;;
32292;SDS011;43233;48.608;8.838;2023-02-28T04:16:31;7.00;;;5.83;;
32292;SDS011;43233;48.608;8.838;2023-02-28T04:18:57;6.13;;;5.53;;
32292;SDS011;43233;48.608;8.838;2023-02-28T04:21:29;6.00;;;5.40;;
32292;SDS011;43233;48.608;8.838;2023-02-28T04:23:56;7.60;;;6.43;;
32292;SDS011;43233;48.608;8.838;2023-02-28T04:26:27;6.57;;;5.93;;
32292;SDS011;43233;48.608;8.838;2023-02-28T04:28:54;7.43;;;6.53;;
32292;SDS011;43233;48.608;8.838;2023-02-28T04:31:21;6.53;;;5.90;;
32292;SDS011;43233;48.608;8.838;2023-02-28T04:33:46;9.33;;;6.70;;
32292;SDS011;43233;48.608;8.838;2023-02-28T04:36:12;6.33;;;5.80;;
32292;SDS011;43233;48.608;8.838;2023-02-28T04:38:39;7.90;;;6.40;;
32292;SDS011;43233;48.608;8.838;2023-02-28T04:41:05;7.00;;;6.30;;
32292;SDS011;43233;48.608;8.838;2023-02-28T04:43:31;7.93;;;7.07;;
32292;SDS011;43233;48.608;8.838;2023-02-28T04:45:57;8.13;;;6.10;;
32292;SDS011;43233;48.608;8.838;2023-02-28T04:48:30;6.40;;;5.67;;
32292;SDS011;43233;48.608;8.838;2023-02-28T04:51:01;6.90;;;6.23;;
32292;SDS011;43233;48.608;8.838;2023-02-28T04:53:29;6.53;;;5.80;;
32292;SDS011;43233;48.608;8.838;2023-02-28T04:55:55;6.83;;;6.13;;
32292;SDS011;43233;48.608;8.838;2023-02-28T04:58:22;8.73;;;7.17;;
32292;SDS011;43233;48.608;8.838;2023-02-28T05:00:48;9.87;;;6.67;;
32292;SDS011;43233;48.608;8.838;2023-02-28T05:03:14;10.73;;;6.50;;
32292;SDS011;43233;48.608;8.838;2023-02-28T05:05:40;7.40;;;6.57;;
32292;SDS011;43233;48.608;8.838;2023-02-28T05:08:06;6.90;;;6.20;;
32292;SDS011;43233;48.608;8.838;2023-02-28T05:10:31;8.27;;;6.50;;
32292;SDS011;43233;48.608;8.838;2023-02-28T05:12:57;6.50;;;5.53;;
32292;SDS011;43233;48.608;8.838;2023-02-28T05:15:23;9.53;;;6.90;;
32292;SDS011;43233;48.608;8.838;2023-02-28T05:17:49;7.10;;;6.40;;
32292;SDS011;43233;48.608;8.838;2023-02-28T05:20:15;6.73;;;6.17;;
32292;SDS011;43233;48.608;8.838;2023-02-28T05:22:42;12.43;;;6.23;;
32292;SDS011;43233;48.608;8.838;2023-02-28T05:25:18;15.33;;;7.23;;
32292;SDS011;43233;48.608;8.838;2023-02-28T05:27:44;9.23;;;6.57;;
32292;SDS011;43233;48.608;8.838;2023-02-28T05:30:10;7.37;;;6.67;;
32292;SDS011;43233;48.608;8.838;2023-02-28T05:32:37;8.50;;;6.90;;
32292;SDS011;43233;48.608;8.838;2023-02-28T05:35:03;8.50;;;6.53;;
32292;SDS011;43233;48.608;8.838;2023-02-28T05:37:29;9.23;;;6.63;;
32292;SDS011;43233;48.608;8.838;2023-02-28T05:39:55;6.97;;;6.13;;
32292;SDS011;43233;48.608;8.838;2023-02-28T05:42:20;9.77;;;7.10;;
32292;SDS011;43233;48.608;8.838;2023-02-28T05:44:46;7.40;;;6.60;;
32292;SDS011;43233;48.608;8.838;2023-02-28T05:47:11;7.50;;;6.33;;
32292;SDS011;43233;48.608;8.838;2023-02-28T05:49:40;7.07;;;6.37;;
32292;SDS011;43233;48.608;8.838;2023-02-28T05:52:06;7.10;;;6.40;;
32292;SDS011;43233;48.608;8.838;2023-02-28T05:54:32;8.10;;;7.27;;
32292;SDS011;43233;48.608;8.838;2023-02-28T05:56:58;11.73;;;7.80;;
32292;SDS011;43233;48.608;8.838;2023-02-28T05:59:23;9.03;;;6.30;;
32292;SDS011;43233;48.608;8.838;2023-02-28T06:01:49;8.37;;;7.07;;
32292;SDS011;43233;48.608;8.838;2023-02-28T06:04:16;7.87;;;6.40;;
32292;SDS011;43233;48.608;8.838;2023-02-28T06:06:46;11.73;;;7.73;;
32292;SDS011;43233;48.608;8.838;2023-02-28T06:09:13;7.57;;;6.70;;
32292;SDS011;43233;48.608;8.838;2023-02-28T06:11:39;7.10;;;6.40;;
32292;SDS011;43233;48.608;8.838;2023-02-28T06:14:05;6.70;;;6.10;;
32292;SDS011;43233;48.608;8.838;2023-02-28T06:16:33;7.90;;;7.10;;
32292;SDS011;43233;48.608;8.838;2023-02-28T06:19:00;7.73;;;6.70;;
32292;SDS011;43233;48.608;8.838;2023-02-28T06:21:27;8.90;;;7.00;;
32292;SDS011;43233;48.608;8.838;2023-02-28T06:23:53;10.00;;;7.40;;
32292;SDS011;43233;48.608;8.838;2023-02-28T06:26:20;10.60;;;7.40;;
32292;SDS011;43233;48.608;8.838;2023-02-28T06:28:46;15.23;;;7.40;;
32292;SDS011;43233;48.608;8.838;2023-02-28T06:31:13;8.60;;;7.20;;
32292;SDS011;43233;48.608;8.838;2023-02-28T06:33:41;7.60;;;6.97;;
32292;SDS011;43233;48.608;8.838;2023-02-28T06:36:08;7.80;;;7.00;;
32292;SDS011;43233;48.608;8.838;2023-02-28T06:38:35;8.07;;;7.33;;
32292;SDS011;43233;48.608;8.838;2023-02-28T06:41:02;11.23;;;7.47;;
32292;SDS011;43233;48.608;8.838;2023-02-28T06:43:29;10.30;;;7.83;;
32292;SDS011;43233;48.608;8.838;2023-02-28T06:45:56;12.33;;;8.40;;
32292;SDS011;43233;48.608;8.838;2023-02-28T06:48:23;7.77;;;7.00;;
32292;SDS011;43233;48.608;8.838;2023-02-28T06:50:49;9.03;;;7.33;;
32292;SDS011;43233;48.608;8.838;2023-02-28T06:53:15;9.17;;;7.27;;
32292;SDS011;43233;48.608;8.838;2023-02-28T06:55:40;10.23;;;7.67;;
32292;SDS011;43233;48.608;8.838;2023-02-28T06:58:06;7.90;;;7.10;;
32292;SDS011;43233;48.608;8.838;2023-02-28T07:00:45;17.43;;;8.67;;
32292;SDS011;43233;48.608;8.838;2023-02-28T07:03:11;13.17;;;9.00;;
32292;SDS011;43233;48.608;8.838;2023-02-28T07:05:37;10.87;;;8.50;;
32292;SDS011;43233;48.608;8.838;2023-02-28T07:08:05;9.53;;;7.80;;
32292;SDS011;43233;48.608;8.838;2023-02-28T07:10:32;16.20;;;9.53;;
32292;SDS011;43233;48.608;8.838;2023-02-28T07:12:58;12.37;;;8.70;;
32292;SDS011;43233;48.608;8.838;2023-02-28T07:15:25;16.40;;;8.73;;
32292;SDS011;43233;48.608;8.838;2023-02-28T07:17:50;10.70;;;8.13;;
32292;SDS011;43233;48.608;8.838;2023-02-28T07:20:16;12.97;;;8.83;;
32292;SDS011;43233;48.608;8.838;2023-02-28T07:22:42;11.07;;;8.20;;
32292;SDS011;43233;48.608;8.838;2023-02-28T07:25:08;9.33;;;8.33;;
32292;SDS011;43233;48.608;8.838;2023-02-28T07:27:34;15.77;;;8.17;;
32292;SDS011;43233;48.608;8.838;2023-02-28T07:29:59;12.17;;;7.70;;
32292;SDS011;43233;48.608;8.838;2023-02-28T07:32:26;10.57;;;7.07;;
32292;SDS011;43233;48.608;8.838;2023-02-28T07:34:53;12.03;;;8.20;;
32292;SDS011;43233;48.608;8.838;2023-02-28T07:37:18;9.07;;;7.97;;
32292;SDS011;43233;48.608;8.838;2023-02-28T07:39:44;10.17;;;7.87;;
32292;SDS011;43233;48.608;8.838;2023-02-28T07:42:10;9.60;;;7.80;;
32292;SDS011;43233;48.608;8.838;2023-02-28T07:44:37;11.47;;;9.33;;
32292;SDS011;43233;48.608;8.838;2023-02-28T07:47:07;17.73;;;9.50;;
32292;SDS011;43233;48.608;8.838;2023-02-28T07:49:34;10.70;;;8.50;;
32292;SDS011;43233;48.608;8.838;2023-02-28T07:52:01;8.23;;;7.33;;
32292;SDS011;43233;48.608;8.838;2023-02-28T07:54:27;13.10;;;8.27;;
32292;SDS011;43233;48.608;8.838;2023-02-28T07:56:54;11.07;;;8.07;;
32292;SDS011;43233;48.608;8.838;2023-02-28T07:59:19;11.23;;;8.53;;
32292;SDS011;43233;48.608;8.838;2023-02-28T08:01:45;11.07;;;7.67;;
32292;SDS011;43233;48.608;8.838;2023-02-28T08:04:10;10.63;;;9.40;;
32292;SDS011;43233;48.608;8.838;2023-02-28T08:06:36;10.47;;;8.00;;
32292;SDS011;43233;48.608;8.838;2023-02-28T08:09:02;12.33;;;8.67;;
32292;SDS011;43233;48.608;8.838;2023-02-28T08:11:27;10.30;;;8.70;;
32292;SDS011;43233;48.608;8.838;2023-02-28T08:13:54;11.90;;;9.30;;
32292;SDS011;43233;48.608;8.838;2023-02-28T08:16:19;11.30;;;8.30;;
32292;SDS011;43233;48.608;8.838;2023-02-28T08:18:47;9.90;;;8.70;;
32292;SDS011;43233;48.608;8.838;2023-02-28T08:21:16;12.23;;;8.80;;
32292;SDS011;43233;48.608;8.838;2023-02-28T08:23:43;11.90;;;9.73;;
32292;SDS011;43233;48.608;8.838;2023-02-28T08:26:08;12.47;;;10.13;;
32292;SDS011;43233;48.608;8.838;2023-02-28T08:28:34;13.90;;;8.47;;
32292;SDS011;43233;48.608;8.838;2023-02-28T08:31:00;10.20;;;7.70;;
32292;SDS011;43233;48.608;8.838;2023-02-28T08:33:26;11.63;;;9.43;;
32292;SDS011;43233;48.608;8.838;2023-02-28T08:35:55;11.10;;;8.40;;
32292;SDS011;43233;48.608;8.838;2023-02-28T08:38:21;10.80;;;8.83;;
32292;SDS011;43233;48.608;8.838;2023-02-28T08:40:48;12.43;;;10.10;;
32292;SDS011;43233;48.608;8.838;2023-02-28T08:43:13;16.10;;;10.17;;
32292;SDS011;43233;48.608;8.838;2023-02-28T08:45:39;15.53;;;10.13;;
32292;SDS011;43233;48.608;8.838;2023-02-28T08:48:05;13.20;;;9.93;;
32292;SDS011;43233;48.608;8.838;2023-02-28T08:50:31;12.00;;;8.83;;
32292;SDS011;43233;48.608;8.838;2023-02-28T08:52:56;10.23;;;8.33;;
32292;SDS011;43233;48.608;8.838;2023-02-28T08:55:22;15.20;;;8.93;;
32292;SDS011;43233;48.608;8.838;2023-02-28T08:57:47;18.70;;;9.50;;
32292;SDS011;43233;48.608;8.838;2023-02-28T09:00:13;12.07;;;9.47;;
32292;SDS011;43233;48.608;8.838;2023-02-28T09:02:39;13.17;;;9.30;;
32292;SDS011;43233;48.608;8.838;2023-02-28T09:05:05;11.90;;;8.23;;
32292;SDS011;43233;48.608;8.838;2023-02-28T09:07:31;10.87;;;8.00;;
32292;SDS011;43233;48.608;8.838;2023-02-28T09:09:57;10.60;;;8.50;;
32292;SDS011;43233;48.608;8.838;2023-02-28T09:12:26;11.13;;;9.47;;
32292;SDS011;43233;48.608;8.838;2023-02-28T09:14:53;11.17;;;8.67;;
32292;SDS011;43233;48.608;8.838;2023-02-28T09:17:19;12.43;;;9.20;;
32292;SDS011;43233;48.608;8.838;2023-02-28T09:19:47;12.63;;;9.90;;
32292;SDS011;43233;48.608;8.838;2023-02-28T09:22:14;13.63;;;9.57;;
32292;SDS011;43233;48.608;8.838;2023-02-28T09:24:39;23.93;;;9.67;;
32292;SDS011;43233;48.608;8.838;2023-02-28T09:27:05;10.30;;;8.37;;
32292;SDS011;43233;48.608;8.838;2023-02-28T09:29:31;14.27;;;9.40;;
32292;SDS011;43233;48.608;8.838;2023-02-28T09:31:58;13.20;;;8.87;;
32292;SDS011;43233;48.608;8.838;2023-02-28T09:34:24;12.70;;;8.90;;
32292;SDS011;43233;48.608;8.838;2023-02-28T09:36:51;10.87;;;9.50;;
32292;SDS011;43233;48.608;8.838;2023-02-28T09:39:19;16.43;;;8.83;;
32292;SDS011;43233;48.608;8.838;2023-02-28T09:41:47;14.93;;;9.00;;
32292;SDS011;43233;48.608;8.838;2023-02-28T09:44:20;16.57;;;10.37;;
32292;SDS011;43233;48.608;8.838;2023-02-28T09:46:48;29.63;;;12.40;;
32292;SDS011;43233;48.608;8.838;2023-02-28T09:49:25;28.80;;;13.50;;
32292;SDS011;43233;48.608;8.838;2023-02-28T09:52:00;21.70;;;14.50;;
32292;SDS011;43233;48.608;8.838;2023-02-28T09:54:33;17.63;;;11.13;;
32292;SDS011;43233;48.608;8.838;2023-02-28T09:57:22;18.40;;;11.77;;
32292;SDS011;43233;48.608;8.838;2023-02-28T10:02:46;14.13;;;9.90;;
32292;SDS011;43233;48.608;8.838;2023-02-28T10:05:16;14.13;;;10.17;;
32292;SDS011;43233;48.608;8.838;2023-02-28T10:13:06;15.03;;;10.77;;
32292;SDS011;43233;48.608;8.838;2023-02-28T10:15:45;15.70;;;9.70;;
32292;SDS011;43233;48.608;8.838;2023-02-28T10:18:13;13.47;;;10.77;;
32292;SDS011;43233;48.608;8.838;2023-02-28T10:20:44;14.70;;;9.63;;
32292;SDS011;43233;48.608;8.838;2023-02-28T10:23:14;13.57;;;9.60;;
32292;SDS011;43233;48.608;8.838;2023-02-28T10:25:47;17.10;;;10.30;;
32292;SDS011;43233;48.608;8.838;2023-02-28T10:28:19;17.00;;;11.30;;
32292;SDS011;43233;48.608;8.838;2023-02-28T10:30:48;17.63;;;9.50;;
32292;SDS011;43233;48.608;8.838;2023-02-28T10:33:21;13.50;;;10.60;;
32292;SDS011;43233;48.608;8.838;2023-02-28T10:35:53;15.23;;;10.00;;
32292;SDS011;43233;48.608;8.838;2023-02-28T10:38:23;12.57;;;10.07;;
32292;SDS011;43233;48.608;8.838;2023-02-28T10:40:51;14.03;;;9.30;;
32292;SDS011;43233;48.608;8.838;2023-02-28T10:43:27;16.13;;;10.73;;
32292;SDS011;43233;48.608;8.838;2023-02-28T10:45:55;13.10;;;9.60;;
32292;SDS011;43233;48.608;8.838;2023-02-28T10:51:01;12.23;;;10.10;;
32292;SDS011;43233;48.608;8.838;2023-02-28T10:53:48;14.50;;;9.27;;
32292;SDS011;43233;48.608;8.838;2023-02-28T10:56:16;14.03;;;10.27;;
32292;SDS011;43233;48.608;8.838;2023-02-28T11:01:47;16.30;;;10.10;;
32292;SDS011;43233;48.608;8.838;2023-02-28T11:07:18;18.07;;;10.63;;
32292;SDS011;43233;48.608;8.838;2023-02-28T11:09:48;12.93;;;10.20;;
32292;SDS011;43233;48.608;8.838;2023-02-28T11:12:37;14.03;;;9.90;;
32292;SDS011;43233;48.608;8.838;2023-02-28T11:15:05;16.43;;;9.40;;
32292;SDS011;43233;48.608;8.838;2023-02-28T11:17:53;15.70;;;9.80;;
32292;SDS011;43233;48.608;8.838;2023-02-28T11:20:25;12.40;;;9.13;;
32292;SDS011;43233;48.608;8.838;2023-02-28T11:22:54;11.17;;;8.90;;
32292;SDS011;43233;48.608;8.838;2023-02-28T11:25:25;18.30;;;9.50;;
32292;SDS011;43233;48.608;8.838;2023-02-28T11:27:59;12.40;;;9.87;;
32292;SDS011;43233;48.608;8.838;2023-02-28T11:32:58;11.83;;;9.27;;
32292;SDS011;43233;48.608;8.838;2023-02-28T11:35:29;18.57;;;11.00;;
32292;SDS011;43233;48.608;8.838;2023-02-28T11:37:59;13.33;;;8.97;;
32292;SDS011;43233;48.608;8.838;2023-02-28T11:40:28;14.17;;;9.70;;
32292;SDS011;43233;48.608;8.838;2023-02-28T11:43:18;14.77;;;9.57;;
32292;SDS011;43233;48.608;8.838;2023-02-28T11:45:59;13.83;;;9.70;;
32292;SDS011;43233;48.608;8.838;2023-02-28T11:51:11;16.37;;;10.20;;
32292;SDS011;43233;48.608;8.838;2023-02-28T11:56:44;18.33;;;10.00;;
32292;SDS011;43233;48.608;8.838;2023-02-28T12:02:29;18.63;;;12.07;;
32292;SDS011;43233;48.608;8.838;2023-02-28T12:05:13;12.20;;;9.47;;
32292;SDS011;43233;48.608;8.838;2023-02-28T12:08:06;20.10;;;10.20;;
32292;SDS011;43233;48.608;8.838;2023-02-28T12:13:41;13.50;;;9.50;;
32292;SDS011;43233;48.608;8.838;2023-02-28T12:24:40;13.87;;;9.97;;
32292;SDS011;43233;48.608;8.838;2023-02-28T12:27:16;14.23;;;9.40;;
32292;SDS011;43233;48.608;8.838;2023-02-28T12:29:52;11.87;;;9.03;;
32292;SDS011;43233;48.608;8.838;2023-02-28T12:34:49;11.70;;;8.30;;
32292;SDS011;43233;48.608;8.838;2023-02-28T12:37:21;10.23;;;8.67;;
32292;SDS011;43233;48.608;8.838;2023-02-28T12:42:43;9.97;;;8.97;;
32292;SDS011;43233;48.608;8.838;2023-02-28T12:47:46;10.50;;;9.27;;
32292;SDS011;43233;48.608;8.838;2023-02-28T12:50:17;12.77;;;9.80;;
32292;SDS011;43233;48.608;8.838;2023-02-28T12:52:58;11.70;;;8.00;;
32292;SDS011;43233;48.608;8.838;2023-02-28T13:09:16;11.83;;;7.30;;
32292;SDS011;43233;48.608;8.838;2023-02-28T13:11:49;11.47;;;7.33;;
32292;SDS011;43233;48.608;8.838;2023-02-28T13:14:24;11.80;;;7.90;;
32292;SDS011;43233;48.608;8.838;2023-02-28T13:16:55;14.87;;;8.93;;
32292;SDS011;43233;48.608;8.838;2023-02-28T13:19:23;13.90;;;8.00;;
32292;SDS011;43233;48.608;8.838;2023-02-28T13:21:51;12.73;;;8.53;;
32292;SDS011;43233;48.608;8.838;2023-02-28T13:29:31;9.00;;;7.07;;
32292;SDS011;43233;48.608;8.838;2023-02-28T13:34:30;9.00;;;7.27;;
32292;SDS011;43233;48.608;8.838;2023-02-28T13:39:54;10.63;;;7.73;;
32292;SDS011;43233;48.608;8.838;2023-02-28T13:42:32;10.57;;;6.77;;
32292;SDS011;43233;48.608;8.838;2023-02-28T13:47:33;10.83;;;7.50;;
32292;SDS011;43233;48.608;8.838;2023-02-28T14:06:08;12.13;;;7.07;;
32292;SDS011;43233;48.608;8.838;2023-02-28T14:11:29;15.97;;;7.47;;
32292;SDS011;43233;48.608;8.838;2023-02-28T14:14:03;11.50;;;8.60;;
32292;SDS011;43233;48.608;8.838;2023-02-28T14:19:26;9.20;;;6.90;;
32292;SDS011;43233;48.608;8.838;2023-02-28T14:30:29;7.13;;;6.50;;
32292;SDS011;43233;48.608;8.838;2023-02-28T14:38:33;9.23;;;7.30;;
32292;SDS011;43233;48.608;8.838;2023-02-28T14:41:12;9.60;;;7.60;;
32292;SDS011;43233;48.608;8.838;2023-02-28T14:43:54;10.00;;;7.43;;
32292;SDS011;43233;48.608;8.838;2023-02-28T14:46:22;8.67;;;7.00;;
32292;SDS011;43233;48.608;8.838;2023-02-28T14:48:52;9.80;;;7.10;;
32292;SDS011;43233;48.608;8.838;2023-02-28T14:51:18;7.57;;;6.20;;
32292;SDS011;43233;48.608;8.838;2023-02-28T14:53:47;8.60;;;6.90;;
32292;SDS011;43233;48.608;8.838;2023-02-28T14:56:19;11.30;;;7.30;;
32292;SDS011;43233;48.608;8.838;2023-02-28T14:58:51;8.90;;;7.30;;
32292;SDS011;43233;48.608;8.838;2023-02-28T15:01:19;11.13;;;7.70;;
32292;SDS011;43233;48.608;8.838;2023-02-28T15:03:47;8.80;;;6.80;;
32292;SDS011;43233;48.608;8.838;2023-02-28T15:08:41;12.23;;;7.20;;
32292;SDS011;43233;48.608;8.838;2023-02-28T15:11:14;12.33;;;7.60;;
32292;SDS011;43233;48.608;8.838;2023-02-28T15:13:44;11.80;;;7.43;;
32292;SDS011;43233;48.608;8.838;2023-02-28T15:16:26;7.23;;;6.53;;
32292;SDS011;43233;48.608;8.838;2023-02-28T15:19:04;9.00;;;7.17;;
32292;SDS011;43233;48.608;8.838;2023-02-28T15:21:54;10.83;;;6.97;;
32292;SDS011;43233;48.608;8.838;2023-02-28T15:24:27;7.57;;;6.20;;
32292;SDS011;43233;48.608;8.838;2023-02-28T15:27:02;8.67;;;7.77;;
32292;SDS011;43233;48.608;8.838;2023-02-28T15:29:33;8.00;;;7.10;;
32292;SDS011;43233;48.608;8.838;2023-02-28T15:32:26;8.07;;;7.23;;
32292;SDS011;43233;48.608;8.838;2023-02-28T15:34:53;17.87;;;8.23;;
32292;SDS011;43233;48.608;8.838;2023-02-28T15:39:58;9.50;;;8.50;;
32292;SDS011;43233;48.608;8.838;2023-02-28T15:46:05;10.40;;;8.00;;
32292;SDS011;43233;48.608;8.838;2023-02-28T15:48:34;14.43;;;10.27;;
32292;SDS011;43233;48.608;8.838;2023-02-28T15:53:37;10.07;;;8.00;;
32292;SDS011;43233;48.608;8.838;2023-02-28T15:56:22;12.10;;;8.80;;
32292;SDS011;43233;48.608;8.838;2023-02-28T15:58:55;9.83;;;7.70;;
32292;SDS011;43233;48.608;8.838;2023-02-28T16:01:25;11.17;;;7.40;;
32292;SDS011;43233;48.608;8.838;2023-02-28T16:03:57;8.13;;;7.17;;
32292;SDS011;43233;48.608;8.838;2023-02-28T16:09:12;13.67;;;8.27;;
32292;SDS011;43233;48.608;8.838;2023-02-28T16:11:41;8.83;;;7.00;;
32292;SDS011;43233;48.608;8.838;2023-02-28T16:14:12;10.30;;;9.07;;
32292;SDS011;43233;48.608;8.838;2023-02-28T16:16:54;12.70;;;8.60;;
32292;SDS011;43233;48.608;8.838;2023-02-28T16:19:21;11.87;;;9.10;;
32292;SDS011;43233;48.608;8.838;2023-02-28T16:21:47;9.90;;;8.87;;
32292;SDS011;43233;48.608;8.838;2023-02-28T16:24:13;10.47;;;8.90;;
32292;SDS011;43233;48.608;8.838;2023-02-28T16:26:42;8.73;;;7.80;;
32292;SDS011;43233;48.608;8.838;2023-02-28T16:29:13;12.20;;;8.30;;
32292;SDS011;43233;48.608;8.838;2023-02-28T16:31:45;9.03;;;7.80;;
32292;SDS011;43233;48.608;8.838;2023-02-28T16:34:11;10.50;;;8.50;;
32292;SDS011;43233;48.608;8.838;2023-02-28T16:36:36;9.03;;;8.10;;
32292;SDS011;43233;48.608;8.838;2023-02-28T16:39:02;9.70;;;8.70;;
32292;SDS011;43233;48.608;8.838;2023-02-28T16:41:28;10.60;;;8.60;;
32292;SDS011;43233;48.608;8.838;2023-02-28T16:43:55;14.17;;;8.97;;
32292;SDS011;43233;48.608;8.838;2023-02-28T16:46:25;15.60;;;9.37;;
32292;SDS011;43233;48.608;8.838;2023-02-28T16:48:55;10.20;;;9.07;;
32292;SDS011;43233;48.608;8.838;2023-02-28T16:51:20;9.80;;;7.80;;
32292;SDS011;43233;48.608;8.838;2023-02-28T16:53:46;11.80;;;9.20;;
32292;SDS011;43233;48.608;8.838;2023-02-28T16:56:14;11.27;;;8.77;;
32292;SDS011;43233;48.608;8.838;2023-02-28T16:58:45;13.03;;;9.50;;
32292;SDS011;43233;48.608;8.838;2023-02-28T17:01:10;12.20;;;8.67;;
32292;SDS011;43233;48.608;8.838;2023-02-28T17:03:36;27.50;;;9.63;;
32292;SDS011;43233;48.608;8.838;2023-02-28T17:06:02;11.60;;;9.13;;
32292;SDS011;43233;48.608;8.838;2023-02-28T17:08:29;11.57;;;9.67;;
32292;SDS011;43233;48.608;8.838;2023-02-28T17:10:57;16.83;;;9.33;;
32292;SDS011;43233;48.608;8.838;2023-02-28T17:13:23;11.60;;;9.10;;
32292;SDS011;43233;48.608;8.838;2023-02-28T17:15:48;14.20;;;9.53;;
32292;SDS011;43233;48.608;8.838;2023-02-28T17:18:15;18.50;;;10.93;;
32292;SDS011;43233;48.608;8.838;2023-02-28T17:20:44;17.70;;;12.43;;
32292;SDS011;43233;48.608;8.838;2023-02-28T17:23:10;13.83;;;10.30;;
32292;SDS011;43233;48.608;8.838;2023-02-28T17:25:36;19.30;;;10.20;;
32292;SDS011;43233;48.608;8.838;2023-02-28T17:28:02;13.37;;;10.73;;